createdAt,value
2018-12-16T00:00:36.740Z,17.67
2018-12-16T00:03:08.122Z,16.87
2018-12-16T00:05:38.982Z,16.63
2018-12-16T00:08:07.628Z,13.87
2018-12-16T00:10:36.381Z,15.37
2018-12-16T00:13:05.138Z,15.63
2018-12-16T00:15:33.879Z,15.47
2018-12-16T00:18:02.944Z,17.00
2018-12-16T00:20:31.958Z,16.67
2018-12-16T00:23:01.050Z,19.03
2018-12-16T00:25:29.883Z,18.67
2018-12-16T00:27:58.589Z,19.23
2018-12-16T00:30:27.292Z,19.07
2018-12-16T00:32:56.940Z,21.10
2018-12-16T00:35:25.702Z,22.03
2018-12-16T00:37:55.127Z,22.47
2018-12-16T00:40:23.876Z,24.07
2018-12-16T00:42:52.734Z,25.33
2018-12-16T00:45:22.710Z,21.10
2018-12-16T00:47:52.386Z,21.43
2018-12-16T00:50:21.160Z,22.27
2018-12-16T00:52:49.853Z,23.37
2018-12-16T00:55:18.653Z,24.37
2018-12-16T00:57:47.349Z,22.80
2018-12-16T01:00:16.301Z,24.77
2018-12-16T01:02:45.053Z,22.30
2018-12-16T01:05:13.931Z,26.17
2018-12-16T01:07:42.670Z,26.53
2018-12-16T01:10:11.658Z,24.63
2018-12-16T01:12:41.267Z,24.97
2018-12-16T01:15:09.996Z,26.50
2018-12-16T01:17:38.710Z,27.30
2018-12-16T01:20:07.842Z,26.33
2018-12-16T01:22:43.199Z,26.47
2018-12-16T01:25:07.400Z,27.95
2018-12-16T01:27:36.072Z,25.70
2018-12-16T01:30:05.187Z,25.33
2018-12-16T01:32:33.965Z,23.77
2018-12-16T01:35:02.719Z,21.87
2018-12-16T01:37:31.481Z,23.80
2018-12-16T01:40:00.256Z,26.27
2018-12-16T01:42:28.955Z,26.60
2018-12-16T01:44:57.719Z,26.90
2018-12-16T01:47:26.465Z,28.00
2018-12-16T01:49:55.354Z,27.23
2018-12-16T01:52:24.095Z,25.33
2018-12-16T01:54:52.849Z,23.40
2018-12-16T01:57:22.535Z,26.63
2018-12-16T01:59:51.240Z,27.50
2018-12-16T02:02:20.060Z,21.67
2018-12-16T02:04:48.816Z,26.83
2018-12-16T02:07:17.585Z,25.27
2018-12-16T02:09:46.326Z,26.13
2018-12-16T02:12:15.021Z,24.53
2018-12-16T02:14:43.717Z,25.37
2018-12-16T02:17:12.454Z,26.70
2018-12-16T02:19:41.250Z,26.20
2018-12-16T02:22:10.018Z,24.63
2018-12-16T02:24:39.068Z,26.57
2018-12-16T02:27:07.800Z,23.30
2018-12-16T02:29:36.511Z,24.27
2018-12-16T02:32:06.333Z,26.67
2018-12-16T02:34:35.230Z,25.20
2018-12-16T02:37:04.281Z,25.63
2018-12-16T02:39:33.087Z,24.40
2018-12-16T02:42:01.796Z,26.30
2018-12-16T02:44:30.657Z,26.33
2018-12-16T02:46:59.284Z,24.83
2018-12-16T02:49:28.067Z,25.90
2018-12-16T02:51:56.802Z,24.93
2018-12-16T02:54:25.666Z,23.93
2018-12-16T02:56:54.551Z,24.93
2018-12-16T02:59:23.271Z,25.67
2018-12-16T03:01:52.621Z,21.70
2018-12-16T03:04:21.407Z,25.03
2018-12-16T03:06:50.097Z,25.67
2018-12-16T03:09:19.073Z,21.80
2018-12-16T03:11:47.845Z,22.77
2018-12-16T03:14:16.821Z,25.63
2018-12-16T03:16:45.821Z,26.07
2018-12-16T03:19:14.486Z,22.97
2018-12-16T03:21:43.415Z,25.67
2018-12-16T03:24:12.203Z,24.80
2018-12-16T03:26:40.985Z,27.17
2018-12-16T03:29:09.719Z,26.30
2018-12-16T03:31:38.782Z,24.40
2018-12-16T03:34:07.553Z,24.10
2018-12-16T03:36:36.290Z,22.87
2018-12-16T03:39:06.686Z,23.97
2018-12-16T03:41:36.341Z,24.17
2018-12-16T03:44:05.261Z,25.77
2018-12-16T03:46:34.001Z,22.80
2018-12-16T03:49:02.719Z,22.83
2018-12-16T03:51:31.393Z,23.33
2018-12-16T03:54:00.108Z,23.27
2018-12-16T03:56:28.822Z,25.20
2018-12-16T03:59:13.729Z,23.77
2018-12-16T04:01:42.572Z,22.03
2018-12-16T04:04:11.317Z,24.10
2018-12-16T04:06:40.050Z,23.50
2018-12-16T04:09:08.754Z,22.40
2018-12-16T04:11:37.476Z,23.87
2018-12-16T04:14:06.199Z,23.20
2018-12-16T04:16:36.870Z,21.00
2018-12-16T04:19:07.198Z,21.83
2018-12-16T04:21:35.894Z,25.23
2018-12-16T04:24:04.661Z,21.07
2018-12-16T04:26:33.553Z,23.67
2018-12-16T04:29:02.362Z,22.80
2018-12-16T04:31:31.373Z,24.80
2018-12-16T04:34:00.254Z,23.00
2018-12-16T04:36:29.232Z,24.67
2018-12-16T04:38:58.938Z,23.90
2018-12-16T04:41:27.676Z,24.63
2018-12-16T04:43:56.434Z,23.60
2018-12-16T04:46:25.109Z,22.37
2018-12-16T04:48:54.009Z,24.50
2018-12-16T04:51:22.994Z,23.53
2018-12-16T04:53:51.790Z,22.73
2018-12-16T04:56:20.672Z,22.97
2018-12-16T04:58:50.457Z,22.87
2018-12-16T05:01:19.468Z,23.33
2018-12-16T05:03:48.206Z,23.10
2018-12-16T05:06:16.955Z,22.63
2018-12-16T05:08:45.929Z,22.20
2018-12-16T05:11:14.752Z,22.63
2018-12-16T05:13:43.463Z,19.67
2018-12-16T05:16:12.152Z,22.30
2018-12-16T05:18:40.837Z,20.70
2018-12-16T05:21:09.529Z,21.40
2018-12-16T05:23:41.853Z,21.43
2018-12-16T05:26:09.119Z,20.90
2018-12-16T05:28:37.890Z,19.07
2018-12-16T05:31:06.578Z,20.57
2018-12-16T05:33:35.321Z,20.80
2018-12-16T05:36:04.049Z,20.07
2018-12-16T05:38:32.701Z,20.73
2018-12-16T05:41:01.402Z,20.50
2018-12-16T05:43:30.073Z,21.00
2018-12-16T05:45:58.749Z,21.90
2018-12-16T05:48:27.372Z,21.37
2018-12-16T05:50:56.392Z,22.60
2018-12-16T05:53:26.083Z,20.93
2018-12-16T05:55:54.869Z,20.33
2018-12-16T05:58:23.596Z,20.03
2018-12-16T06:00:53.002Z,18.00
2018-12-16T06:03:21.673Z,22.00
2018-12-16T06:05:50.411Z,22.87
2018-12-16T06:08:19.009Z,20.23
2018-12-16T06:10:47.731Z,21.50
2018-12-16T06:13:16.727Z,21.53
2018-12-16T06:15:45.537Z,18.90
2018-12-16T06:18:15.346Z,20.90
2018-12-16T06:20:44.055Z,21.07
2018-12-16T06:23:12.977Z,21.57
2018-12-16T06:25:41.738Z,22.63
2018-12-16T06:28:10.433Z,22.37
2018-12-16T06:30:39.609Z,21.60
2018-12-16T06:33:08.275Z,22.33
2018-12-16T06:35:36.970Z,21.47
2018-12-16T06:38:05.733Z,20.77
2018-12-16T06:40:34.481Z,22.87
2018-12-16T06:43:03.143Z,22.03
2018-12-16T06:45:31.998Z,21.13
2018-12-16T06:48:00.917Z,21.60
2018-12-16T06:50:29.633Z,22.07
2018-12-16T06:52:58.336Z,23.00
2018-12-16T06:55:26.988Z,22.77
2018-12-16T06:57:55.677Z,23.13
2018-12-16T07:00:24.471Z,19.10
2018-12-16T07:02:54.126Z,23.40
2018-12-16T07:05:23.668Z,21.97
2018-12-16T07:07:53.169Z,23.00
2018-12-16T07:10:21.965Z,23.10
2018-12-16T07:12:50.723Z,21.20
2018-12-16T07:15:19.598Z,22.83
2018-12-16T07:17:48.244Z,22.23
2018-12-16T07:20:16.999Z,22.37
2018-12-16T07:22:47.146Z,22.17
2018-12-16T07:25:16.029Z,21.40
2018-12-16T07:27:44.707Z,21.00
2018-12-16T07:30:13.949Z,21.37
2018-12-16T07:32:42.741Z,20.97
2018-12-16T07:35:11.538Z,20.50
2018-12-16T07:37:40.292Z,22.80
2018-12-16T07:40:09.369Z,22.60
2018-12-16T07:42:38.054Z,23.07
2018-12-16T07:45:07.340Z,22.43
2018-12-16T07:47:36.139Z,24.87
2018-12-16T07:50:06.143Z,24.33
2018-12-16T07:52:34.911Z,25.77
2018-12-16T07:55:04.101Z,24.53
2018-12-16T07:57:32.851Z,23.55
2018-12-16T08:00:02.763Z,23.20
2018-12-16T08:02:31.487Z,22.53
2018-12-16T08:05:00.269Z,23.90
2018-12-16T08:07:28.980Z,23.47
2018-12-16T08:09:57.729Z,24.00
2018-12-16T08:12:26.692Z,23.73
2018-12-16T08:14:55.428Z,24.57
2018-12-16T08:17:24.145Z,24.00
2018-12-16T08:19:53.375Z,23.67
2018-12-16T08:22:22.055Z,24.53
2018-12-16T08:24:50.698Z,22.43
2018-12-16T08:27:19.473Z,24.67
2018-12-16T08:29:48.214Z,23.00
2018-12-16T08:32:18.252Z,25.30
2018-12-16T08:34:47.170Z,25.17
2018-12-16T08:37:15.861Z,24.50
2018-12-16T08:39:44.505Z,25.47
2018-12-16T08:42:13.239Z,24.53
2018-12-16T08:44:42.117Z,25.70
2018-12-16T08:47:10.776Z,25.43
2018-12-16T08:49:39.598Z,24.70
2018-12-16T08:52:08.310Z,25.30
2018-12-16T08:54:37.282Z,23.77
2018-12-16T08:57:06.024Z,23.40
2018-12-16T08:59:34.765Z,25.47
2018-12-16T09:02:03.734Z,23.33
2018-12-16T09:04:32.500Z,25.10
2018-12-16T09:07:01.165Z,23.67
2018-12-16T09:09:30.104Z,24.90
2018-12-16T09:11:58.865Z,23.47
2018-12-16T09:14:27.619Z,22.80
2018-12-16T09:16:56.306Z,25.23
2018-12-16T09:19:25.313Z,25.03
2018-12-16T09:21:54.076Z,24.90
2018-12-16T09:24:23.618Z,22.37
2018-12-16T09:26:52.345Z,24.23
2018-12-16T09:29:21.074Z,24.77
2018-12-16T09:31:49.837Z,23.03
2018-12-16T09:34:19.433Z,23.07
2018-12-16T09:36:48.150Z,24.43
2018-12-16T09:39:16.872Z,24.37
2018-12-16T09:41:45.679Z,23.40
2018-12-16T09:44:14.429Z,23.50
2018-12-16T09:46:44.167Z,22.17
2018-12-16T09:49:12.881Z,23.13
2018-12-16T09:51:41.621Z,23.87
2018-12-16T09:54:10.426Z,22.35
2018-12-16T09:56:39.192Z,22.40
2018-12-16T09:59:07.915Z,21.27
2018-12-16T10:01:37.903Z,21.13
2018-12-16T10:04:06.660Z,20.60
2018-12-16T10:06:35.412Z,20.93
2018-12-16T10:09:07.967Z,24.27
2018-12-16T10:11:36.715Z,22.73
2018-12-16T10:14:05.437Z,22.40
2018-12-16T10:16:34.248Z,22.15
2018-12-16T10:19:03.867Z,19.90
2018-12-16T10:21:32.620Z,20.47
2018-12-16T10:24:01.245Z,21.23
2018-12-16T10:26:30.756Z,18.77
2018-12-16T10:28:59.545Z,21.73
2018-12-16T10:31:28.377Z,20.07
2018-12-16T10:33:57.113Z,19.00
2018-12-16T10:36:25.805Z,18.87
2018-12-16T10:38:54.508Z,20.10
2018-12-16T10:41:23.805Z,19.53
2018-12-16T10:43:53.485Z,19.07
2018-12-16T10:46:22.268Z,19.30
2018-12-16T10:48:50.997Z,18.03
2018-12-16T10:51:19.685Z,15.67
2018-12-16T10:53:48.453Z,18.67
2018-12-16T10:56:17.113Z,17.73
2018-12-16T10:58:45.845Z,17.43
2018-12-16T11:01:19.861Z,17.57
2018-12-16T11:03:48.624Z,16.47
2018-12-16T11:06:17.419Z,16.33
2018-12-16T11:08:46.538Z,17.37
2018-12-16T11:11:15.279Z,16.70
2018-12-16T11:13:44.076Z,17.23
2018-12-16T11:16:12.843Z,15.07
2018-12-16T11:18:41.549Z,16.40
2018-12-16T11:21:10.310Z,18.00
2018-12-16T11:23:39.175Z,15.67
2018-12-16T11:26:08.437Z,15.47
2018-12-16T11:28:37.038Z,14.87
2018-12-16T11:31:05.808Z,15.03
2018-12-16T11:33:34.504Z,15.10
2018-12-16T11:36:03.184Z,14.77
2018-12-16T11:38:31.931Z,15.63
2018-12-16T11:41:00.689Z,14.30
2018-12-16T11:43:29.339Z,13.63
2018-12-16T11:45:58.152Z,14.53
2018-12-16T11:48:26.824Z,13.77
2018-12-16T11:50:55.573Z,14.90
2018-12-16T11:53:24.307Z,14.47
2018-12-16T11:55:53.913Z,12.97
2018-12-16T11:58:23.821Z,14.73
2018-12-16T12:00:52.466Z,13.50
2018-12-16T12:03:21.450Z,15.33
2018-12-16T12:05:52.342Z,13.97
2018-12-16T12:08:21.039Z,15.63
2018-12-16T12:10:49.771Z,15.00
2018-12-16T12:13:18.586Z,15.30
2018-12-16T12:15:48.257Z,14.10
2018-12-16T12:18:17.049Z,13.80
2018-12-16T12:20:46.125Z,13.90
2018-12-16T12:23:14.879Z,14.00
2018-12-16T12:25:43.456Z,12.87
2018-12-16T12:28:12.674Z,14.70
2018-12-16T12:30:41.469Z,14.20
2018-12-16T12:33:10.202Z,12.93
2018-12-16T12:35:39.013Z,13.20
2018-12-16T12:38:07.782Z,14.00
2018-12-16T12:40:36.486Z,14.50
2018-12-16T12:43:05.287Z,13.27
2018-12-16T12:45:34.020Z,14.40
2018-12-16T12:48:02.750Z,14.43
2018-12-16T12:50:31.538Z,13.93
2018-12-16T12:53:00.406Z,13.70
2018-12-16T12:55:29.127Z,13.30
2018-12-16T12:57:57.905Z,12.20
2018-12-16T13:00:26.651Z,14.13
2018-12-16T13:02:55.393Z,12.60
2018-12-16T13:05:24.812Z,13.73
2018-12-16T13:07:53.585Z,12.30
2018-12-16T13:10:22.359Z,12.30
2018-12-16T13:12:50.958Z,11.10
2018-12-16T13:15:19.719Z,11.43
2018-12-16T13:17:48.959Z,11.77
2018-12-16T13:20:17.645Z,11.97
2018-12-16T13:22:47.401Z,12.43
2018-12-16T13:25:33.595Z,11.57
2018-12-16T13:27:58.153Z,11.63
2018-12-16T13:30:26.929Z,12.03
2018-12-16T13:32:55.570Z,10.83
2018-12-16T13:35:24.709Z,13.07
2018-12-16T13:37:53.697Z,12.37
2018-12-16T13:40:22.382Z,11.03
2018-12-16T13:42:51.241Z,12.63
2018-12-16T13:45:20.013Z,12.97
2018-12-16T13:47:48.771Z,12.83
2018-12-16T13:50:17.477Z,12.60
2018-12-16T13:52:46.315Z,12.07
2018-12-16T13:55:15.033Z,11.57
2018-12-16T13:57:44.514Z,11.67
2018-12-16T14:00:13.434Z,11.53
2018-12-16T14:02:42.126Z,12.07
2018-12-16T14:05:10.867Z,11.23
2018-12-16T14:07:39.585Z,12.27
2018-12-16T14:10:08.346Z,11.37
2018-12-16T14:12:36.987Z,11.97
2018-12-16T14:15:05.785Z,11.50
2018-12-16T14:17:34.429Z,11.13
2018-12-16T14:20:03.235Z,10.87
2018-12-16T14:22:32.286Z,11.50
2018-12-16T14:25:01.024Z,11.27
2018-12-16T14:27:29.723Z,11.07
2018-12-16T14:29:58.508Z,11.70
2018-12-16T14:32:27.258Z,11.13
2018-12-16T14:34:55.993Z,11.50
2018-12-16T14:37:25.738Z,12.20
2018-12-16T14:39:55.377Z,12.23
2018-12-16T14:42:24.295Z,11.00
2018-12-16T14:44:53.086Z,11.40
2018-12-16T14:47:21.830Z,11.37
2018-12-16T14:49:50.518Z,11.20
2018-12-16T14:52:19.497Z,11.57
2018-12-16T14:54:48.278Z,12.67
2018-12-16T14:57:16.989Z,13.70
2018-12-16T14:59:45.711Z,12.70
2018-12-16T15:02:14.479Z,13.37
2018-12-16T15:04:43.158Z,11.53
2018-12-16T15:07:11.925Z,11.83
2018-12-16T15:09:40.659Z,10.63
2018-12-16T15:12:09.347Z,11.77
2018-12-16T15:14:38.095Z,11.60
2018-12-16T15:17:06.981Z,13.13
2018-12-16T15:19:35.741Z,12.37
2018-12-16T15:22:04.478Z,13.20
2018-12-16T15:24:33.103Z,12.63
2018-12-16T15:27:01.917Z,12.83
2018-12-16T15:29:30.618Z,12.93
2018-12-16T15:31:59.337Z,13.93
2018-12-16T15:34:28.044Z,12.47
2018-12-16T15:36:57.115Z,13.00
2018-12-16T15:39:25.945Z,12.20
2018-12-16T15:41:55.649Z,13.33
2018-12-16T15:44:25.534Z,12.87
2018-12-16T15:46:54.277Z,13.00
2018-12-16T15:49:23.101Z,12.07
2018-12-16T15:51:51.924Z,11.57
2018-12-16T15:54:20.703Z,11.73
2018-12-16T15:56:49.445Z,13.10
2018-12-16T15:59:18.244Z,11.40
2018-12-16T16:01:46.862Z,11.87
2018-12-16T16:04:15.514Z,11.83
2018-12-16T16:06:44.329Z,13.83
2018-12-16T16:09:13.081Z,19.75
2018-12-16T16:11:41.757Z,18.70
2018-12-16T16:14:10.606Z,16.40
2018-12-16T16:16:40.817Z,14.93
2018-12-16T16:19:09.580Z,14.53
2018-12-16T16:21:38.333Z,14.33
2018-12-16T16:24:07.056Z,13.00
2018-12-16T16:26:35.846Z,13.17
2018-12-16T16:29:04.630Z,12.53
2018-12-16T16:31:33.357Z,13.40
2018-12-16T16:34:02.227Z,12.50
2018-12-16T16:36:30.929Z,13.30
2018-12-16T16:38:59.626Z,15.33
2018-12-16T16:41:28.272Z,14.40
2018-12-16T16:43:57.114Z,13.40
2018-12-16T16:46:26.959Z,14.00
2018-12-16T16:48:55.757Z,12.57
2018-12-16T16:51:24.481Z,13.80
2018-12-16T16:53:53.202Z,15.63
2018-12-16T16:56:23.090Z,14.27
2018-12-16T16:58:51.925Z,14.27
2018-12-16T17:01:20.639Z,15.60
2018-12-16T17:03:49.424Z,15.53
2018-12-16T17:06:18.185Z,15.27
2018-12-16T17:08:46.922Z,14.37
2018-12-16T17:11:16.016Z,13.43
2018-12-16T17:13:45.241Z,14.73
2018-12-16T17:16:14.115Z,15.10
2018-12-16T17:18:43.035Z,16.00
2018-12-16T17:21:11.858Z,15.20
2018-12-16T17:23:40.578Z,15.77
2018-12-16T17:26:09.345Z,15.80
2018-12-16T17:28:38.411Z,15.83
2018-12-16T17:31:07.125Z,16.03
2018-12-16T17:33:35.869Z,17.07
2018-12-16T17:36:04.715Z,16.30
2018-12-16T17:38:33.479Z,14.60
2018-12-16T17:41:02.299Z,15.50
2018-12-16T17:43:31.129Z,17.60
2018-12-16T17:45:59.881Z,16.80
2018-12-16T17:48:28.585Z,18.13
2018-12-16T17:50:57.393Z,17.63
2018-12-16T17:53:27.062Z,18.17
2018-12-16T17:55:55.689Z,19.70
2018-12-16T17:58:25.143Z,17.07
2018-12-16T18:00:53.957Z,17.33
2018-12-16T18:03:22.765Z,17.20
2018-12-16T18:05:51.591Z,19.63
2018-12-16T18:08:20.226Z,17.00
2018-12-16T18:10:48.993Z,17.27
2018-12-16T18:13:17.747Z,16.67
2018-12-16T18:15:46.469Z,17.17
2018-12-16T18:18:15.268Z,18.07
2018-12-16T18:20:44.026Z,18.33
2018-12-16T18:23:12.665Z,17.70
2018-12-16T18:25:41.416Z,19.30
2018-12-16T18:28:11.199Z,18.23
2018-12-16T18:30:39.912Z,17.50
2018-12-16T18:33:09.209Z,17.33
2018-12-16T18:35:37.953Z,18.77
2018-12-16T18:38:06.722Z,19.77
2018-12-16T18:40:35.464Z,19.57
2018-12-16T18:43:04.273Z,19.13
2018-12-16T18:45:33.050Z,19.43
2018-12-16T18:48:02.618Z,18.67
2018-12-16T18:50:31.359Z,21.20
2018-12-16T18:53:00.269Z,21.27
2018-12-16T18:55:28.973Z,19.40
2018-12-16T18:57:57.756Z,19.63
2018-12-16T19:00:26.574Z,19.50
2018-12-16T19:02:55.290Z,20.83
2018-12-16T19:05:24.341Z,19.57
2018-12-16T19:07:53.023Z,20.97
2018-12-16T19:10:21.719Z,20.37
2018-12-16T19:12:50.475Z,18.30
2018-12-16T19:15:19.805Z,20.43
2018-12-16T19:17:48.562Z,19.33
2018-12-16T19:20:17.345Z,19.23
2018-12-16T19:22:46.195Z,19.33
2018-12-16T19:25:15.112Z,20.30
2018-12-16T19:27:43.898Z,19.97
2018-12-16T19:30:12.642Z,19.23
2018-12-16T19:32:41.378Z,21.07
2018-12-16T19:35:16.711Z,21.07
2018-12-16T19:37:45.793Z,20.20
2018-12-16T19:40:15.469Z,19.15
2018-12-16T19:42:44.165Z,20.40
2018-12-16T19:45:12.981Z,19.20
2018-12-16T19:47:41.667Z,18.73
2018-12-16T19:50:10.570Z,18.93
2018-12-16T19:52:40.168Z,19.50
2018-12-16T19:55:08.903Z,18.70
2018-12-16T19:57:37.675Z,19.20
2018-12-16T20:00:07.194Z,19.87
2018-12-16T20:02:35.886Z,19.93
2018-12-16T20:05:05.092Z,21.13
2018-12-16T20:07:34.251Z,21.17
2018-12-16T20:10:04.013Z,21.20
2018-12-16T20:12:33.685Z,20.93
2018-12-16T20:15:02.513Z,21.90
2018-12-16T20:17:32.170Z,22.63
2018-12-16T20:20:00.952Z,22.80
2018-12-16T20:22:30.127Z,22.80
2018-12-16T20:24:59.025Z,20.73
2018-12-16T20:27:27.745Z,22.23
2018-12-16T20:29:56.543Z,21.37
2018-12-16T20:32:25.325Z,18.60
2018-12-16T20:34:54.067Z,20.53
2018-12-16T20:37:23.934Z,19.57
2018-12-16T20:39:52.652Z,20.77
2018-12-16T20:42:21.346Z,21.37
2018-12-16T20:44:50.145Z,19.77
2018-12-16T20:47:18.894Z,20.25
2018-12-16T20:49:47.674Z,20.77
2018-12-16T20:52:16.511Z,21.27
2018-12-16T20:54:45.145Z,21.30
2018-12-16T20:57:18.841Z,18.80
2018-12-16T20:59:44.649Z,21.40
2018-12-16T21:02:13.394Z,21.30
2018-12-16T21:04:42.082Z,21.87
2018-12-16T21:07:10.831Z,20.50
2018-12-16T21:09:39.525Z,20.87
2018-12-16T21:12:12.586Z,21.50
2018-12-16T21:14:46.596Z,21.53
2018-12-16T21:19:23.558Z,21.67
2018-12-16T21:21:52.384Z,20.40
2018-12-16T21:24:21.090Z,22.40
2018-12-16T21:26:49.989Z,20.13
2018-12-16T21:29:18.746Z,21.17
2018-12-16T21:31:47.449Z,21.90
2018-12-16T21:34:16.262Z,21.40
2018-12-16T21:36:44.972Z,20.73
2018-12-16T21:39:13.734Z,22.00
2018-12-16T21:41:44.353Z,20.60
2018-12-16T21:44:13.149Z,19.47
2018-12-16T21:46:41.904Z,29.43
2018-12-16T21:49:10.753Z,21.93
2018-12-16T21:51:39.417Z,21.55
2018-12-16T21:54:08.274Z,21.03
2018-12-16T21:56:37.122Z,20.73
2018-12-16T21:59:05.895Z,20.90
2018-12-16T22:01:34.956Z,21.43
2018-12-16T22:04:04.488Z,21.93
2018-12-16T22:06:34.159Z,21.13
2018-12-16T22:09:02.981Z,21.37
2018-12-16T22:11:31.780Z,22.57
2018-12-16T22:14:00.527Z,21.20
2018-12-16T22:16:29.310Z,21.63
2018-12-16T22:18:58.021Z,21.50
2018-12-16T22:21:26.781Z,20.37
2018-12-16T22:23:55.500Z,22.63
2018-12-16T22:26:24.189Z,21.50
2018-12-16T22:28:52.901Z,21.53
2018-12-16T22:31:21.707Z,23.27
2018-12-16T22:33:50.618Z,21.13
2018-12-16T22:36:19.340Z,20.77
2018-12-16T22:38:48.033Z,21.30
2018-12-16T22:41:16.815Z,22.60
2018-12-16T22:43:45.846Z,22.03
2018-12-16T22:46:14.798Z,22.33
2018-12-16T22:48:43.621Z,22.10
2018-12-16T22:51:12.335Z,21.63
2018-12-16T22:53:41.290Z,20.90
2018-12-16T22:56:09.949Z,22.67
2018-12-16T22:58:38.868Z,22.43
2018-12-16T23:01:13.013Z,22.90
2018-12-16T23:03:41.802Z,22.20
2018-12-16T23:06:10.491Z,23.93
2018-12-16T23:08:39.194Z,24.77
2018-12-16T23:11:08.196Z,22.33
2018-12-16T23:13:37.044Z,22.60
2018-12-16T23:16:05.834Z,22.63
2018-12-16T23:18:34.517Z,22.73
2018-12-16T23:21:03.689Z,21.40
2018-12-16T23:23:32.462Z,24.63
2018-12-16T23:26:01.182Z,23.70
2018-12-16T23:28:30.049Z,23.40
2018-12-16T23:30:58.779Z,23.67
2018-12-16T23:33:27.502Z,23.87
2018-12-16T23:35:57.176Z,25.17
2018-12-16T23:38:25.917Z,25.13
2018-12-16T23:40:55.838Z,25.80
2018-12-16T23:43:24.621Z,24.00
2018-12-16T23:45:53.405Z,25.83
2018-12-16T23:48:22.035Z,26.00
2018-12-16T23:50:51.405Z,24.30
2018-12-16T23:53:20.185Z,25.30
2018-12-16T23:55:48.909Z,25.00
2018-12-16T23:58:17.561Z,24.60
